createdAt,value
2019-01-11T00:01:01.424Z,9.87
2019-01-11T00:03:30.577Z,8.33
2019-01-11T00:05:59.745Z,10.33
2019-01-11T00:08:29.035Z,9.13
2019-01-11T00:10:58.181Z,9.03
2019-01-11T00:13:27.356Z,9.23
2019-01-11T00:15:56.661Z,8.10
2019-01-11T00:18:26.150Z,12.77
2019-01-11T00:20:55.424Z,8.40
2019-01-11T00:23:24.672Z,11.83
2019-01-11T00:25:53.999Z,9.97
2019-01-11T00:28:23.501Z,10.07
2019-01-11T00:30:52.777Z,10.40
2019-01-11T00:33:22.092Z,9.27
2019-01-11T00:35:51.290Z,8.50
2019-01-11T00:38:20.586Z,7.47
2019-01-11T00:40:49.887Z,11.30
2019-01-11T00:43:19.121Z,8.07
2019-01-11T00:45:48.306Z,8.27
2019-01-11T00:48:17.443Z,8.57
2019-01-11T00:50:46.823Z,9.20
2019-01-11T00:53:15.969Z,7.87
2019-01-11T00:55:45.344Z,9.47
2019-01-11T00:58:14.473Z,9.27
2019-01-11T01:00:43.750Z,8.53
2019-01-11T01:03:12.953Z,8.30
2019-01-11T01:05:42.178Z,6.40
2019-01-11T01:08:11.506Z,8.43
2019-01-11T01:10:41.310Z,8.03
2019-01-11T01:13:10.484Z,6.80
2019-01-11T01:15:39.689Z,9.73
2019-01-11T01:18:08.917Z,9.80
2019-01-11T01:20:38.518Z,7.13
2019-01-11T01:23:07.701Z,14.20
2019-01-11T01:25:37.021Z,8.30
2019-01-11T01:28:06.269Z,6.80
2019-01-11T01:30:35.565Z,10.63
2019-01-11T01:33:04.925Z,10.37
2019-01-11T01:35:34.447Z,10.50
2019-01-11T01:38:03.777Z,9.63
2019-01-11T01:40:32.961Z,8.37
2019-01-11T01:43:02.138Z,10.97
2019-01-11T01:45:31.313Z,9.27
2019-01-11T01:48:00.586Z,7.73
2019-01-11T01:50:29.837Z,7.43
2019-01-11T01:52:59.088Z,8.93
2019-01-11T01:55:28.310Z,10.63
2019-01-11T01:57:57.975Z,10.23
2019-01-11T02:00:27.333Z,11.70
2019-01-11T02:02:56.832Z,9.77
2019-01-11T02:05:26.140Z,10.57
2019-01-11T02:07:55.309Z,11.03
2019-01-11T02:10:24.505Z,12.57
2019-01-11T02:12:53.819Z,10.50
2019-01-11T02:15:22.964Z,11.20
2019-01-11T02:17:52.168Z,9.03
2019-01-11T02:20:21.373Z,10.93
2019-01-11T02:22:50.681Z,11.63
2019-01-11T02:25:19.964Z,10.70
2019-01-11T02:27:49.227Z,14.27
2019-01-11T02:30:20.693Z,9.83
2019-01-11T02:32:52.769Z,10.33
2019-01-11T02:35:20.884Z,9.70
2019-01-11T02:37:50.101Z,11.00
2019-01-11T02:40:19.324Z,10.47
2019-01-11T02:42:48.582Z,11.53
2019-01-11T02:45:19.942Z,13.70
2019-01-11T02:47:49.129Z,9.73
2019-01-11T02:50:18.387Z,11.37
2019-01-11T02:52:47.570Z,12.70
2019-01-11T02:55:16.704Z,11.23
2019-01-11T02:57:45.948Z,11.93
2019-01-11T03:00:21.613Z,9.23
2019-01-11T03:02:50.791Z,10.83
2019-01-11T03:05:20.064Z,11.27
2019-01-11T03:07:49.494Z,13.00
2019-01-11T03:10:20.741Z,14.97
2019-01-11T03:12:49.999Z,9.77
2019-01-11T03:15:19.804Z,11.27
2019-01-11T03:17:48.987Z,10.57
2019-01-11T03:20:18.665Z,10.70
2019-01-11T03:22:47.837Z,10.50
2019-01-11T03:25:17.235Z,9.83
2019-01-11T03:27:46.404Z,12.47
2019-01-11T03:30:17.485Z,13.00
2019-01-11T03:32:46.716Z,11.73
2019-01-11T03:35:16.930Z,11.03
2019-01-11T03:37:47.894Z,13.13
2019-01-11T03:40:18.267Z,10.03
2019-01-11T03:42:47.457Z,11.53
2019-01-11T03:45:17.923Z,9.80
2019-01-11T03:47:47.140Z,12.87
2019-01-11T03:50:17.009Z,11.03
2019-01-11T03:52:46.150Z,10.33
2019-01-11T03:55:17.091Z,10.50
2019-01-11T03:57:46.474Z,10.17
2019-01-11T04:00:23.437Z,9.63
2019-01-11T04:02:52.654Z,8.43
2019-01-11T04:05:21.885Z,11.90
2019-01-11T04:07:51.302Z,10.40
2019-01-11T04:10:24.491Z,9.40
2019-01-11T04:12:53.791Z,11.63
2019-01-11T04:15:23.490Z,8.57
2019-01-11T04:18:24.293Z,14.73
2019-01-11T04:20:53.552Z,10.17
2019-01-11T04:23:22.875Z,9.47
2019-01-11T04:25:52.070Z,11.00
2019-01-11T04:28:21.379Z,14.33
2019-01-11T04:30:50.681Z,9.00
2019-01-11T04:33:19.841Z,9.83
2019-01-11T04:35:49.094Z,10.57
2019-01-11T04:38:18.335Z,8.70
2019-01-11T04:40:47.503Z,9.13
2019-01-11T04:43:16.709Z,10.30
2019-01-11T04:45:46.053Z,11.37
2019-01-11T04:48:15.330Z,8.93
2019-01-11T04:50:44.853Z,11.63
2019-01-11T04:53:14.079Z,12.37
2019-01-11T04:55:43.336Z,12.87
2019-01-11T04:58:12.532Z,9.43
2019-01-11T05:00:41.771Z,8.30
2019-01-11T05:03:11.072Z,11.57
2019-01-11T05:05:40.353Z,11.60
2019-01-11T05:08:09.527Z,10.53
2019-01-11T05:10:38.729Z,8.53
2019-01-11T05:13:36.839Z,13.60
2019-01-11T05:16:06.305Z,10.70
2019-01-11T05:18:35.642Z,9.50
2019-01-11T05:21:04.909Z,13.93
2019-01-11T05:23:34.058Z,11.27
2019-01-11T05:26:03.365Z,9.77
2019-01-11T05:28:32.539Z,11.67
2019-01-11T05:31:01.814Z,10.83
2019-01-11T05:33:30.972Z,7.67
2019-01-11T05:36:00.257Z,14.23
2019-01-11T05:38:29.496Z,14.10
2019-01-11T05:40:58.687Z,11.10
2019-01-11T05:43:27.930Z,11.97
2019-01-11T05:45:57.153Z,9.40
2019-01-11T05:48:26.435Z,11.00
2019-01-11T05:50:55.840Z,10.73
2019-01-11T05:53:25.143Z,13.60
2019-01-11T05:55:55.220Z,12.23
2019-01-11T05:58:32.273Z,11.63
2019-01-11T06:01:01.719Z,13.13
2019-01-11T06:03:31.010Z,11.93
2019-01-11T06:06:00.202Z,12.20
2019-01-11T06:08:30.222Z,14.10
2019-01-11T06:10:59.406Z,10.50
2019-01-11T06:13:28.635Z,13.03
2019-01-11T06:15:57.900Z,12.50
2019-01-11T06:18:27.154Z,11.13
2019-01-11T06:20:56.416Z,12.00
2019-01-11T06:23:25.686Z,11.00
2019-01-11T06:25:54.864Z,9.53
2019-01-11T06:28:24.131Z,12.53
2019-01-11T06:30:53.412Z,11.30
2019-01-11T06:33:22.613Z,9.53
2019-01-11T06:35:51.793Z,13.70
2019-01-11T06:38:21.034Z,9.03
2019-01-11T06:40:50.310Z,10.83
2019-01-11T06:43:19.508Z,14.67
2019-01-11T06:45:48.740Z,10.80
2019-01-11T06:48:36.977Z,11.90
2019-01-11T06:51:06.162Z,8.53
2019-01-11T06:53:35.357Z,9.70
2019-01-11T06:56:04.644Z,11.77
2019-01-11T06:58:33.916Z,14.53
2019-01-11T07:01:03.067Z,11.23
2019-01-11T07:03:32.343Z,12.87
2019-01-11T07:06:01.501Z,11.87
2019-01-11T07:08:30.741Z,11.77
2019-01-11T07:11:00.000Z,10.50
2019-01-11T07:13:29.184Z,8.97
2019-01-11T07:15:58.367Z,8.37
2019-01-11T07:18:27.643Z,10.40
2019-01-11T07:20:56.883Z,11.47
2019-01-11T07:23:26.103Z,11.87
2019-01-11T07:25:55.368Z,11.20
2019-01-11T07:28:24.642Z,12.37
2019-01-11T07:31:05.761Z,10.33
2019-01-11T07:33:35.627Z,8.80
2019-01-11T07:36:24.229Z,9.40
2019-01-11T07:38:53.564Z,11.07
2019-01-11T07:41:22.814Z,9.37
2019-01-11T07:43:52.003Z,9.10
2019-01-11T07:46:21.253Z,10.60
2019-01-11T07:48:50.459Z,13.37
2019-01-11T07:51:19.719Z,11.40
2019-01-11T07:53:48.976Z,10.90
2019-01-11T07:56:18.150Z,8.37
2019-01-11T07:58:47.300Z,13.97
2019-01-11T08:01:16.569Z,9.40
2019-01-11T08:03:45.720Z,10.67
2019-01-11T08:06:15.013Z,12.40
2019-01-11T08:08:44.169Z,14.73
2019-01-11T08:11:13.399Z,14.47
2019-01-11T08:13:42.680Z,16.10
2019-01-11T08:16:12.059Z,13.87
2019-01-11T08:18:41.338Z,17.90
2019-01-11T08:21:10.623Z,12.23
2019-01-11T08:23:39.813Z,9.63
2019-01-11T08:26:09.101Z,11.83
2019-01-11T08:28:38.386Z,13.60
2019-01-11T08:31:07.695Z,11.67
2019-01-11T08:33:37.081Z,11.50
2019-01-11T08:36:06.555Z,11.33
2019-01-11T08:38:35.754Z,10.73
2019-01-11T08:41:05.011Z,12.53
2019-01-11T08:43:34.296Z,14.43
2019-01-11T08:46:03.557Z,13.80
2019-01-11T08:48:32.708Z,10.07
2019-01-11T08:51:02.782Z,15.40
2019-01-11T08:53:32.264Z,13.13
2019-01-11T08:56:08.074Z,11.97
2019-01-11T08:58:32.969Z,11.93
2019-01-11T09:01:02.241Z,13.67
2019-01-11T09:03:31.485Z,12.07
2019-01-11T09:06:00.692Z,16.83
2019-01-11T09:08:29.892Z,12.87
2019-01-11T09:10:59.172Z,12.63
2019-01-11T09:13:29.739Z,13.20
2019-01-11T09:15:59.046Z,10.63
2019-01-11T09:18:56.213Z,16.30
2019-01-11T09:21:25.608Z,11.43
2019-01-11T09:23:54.887Z,11.77
2019-01-11T09:26:24.232Z,12.53
2019-01-11T09:28:53.549Z,12.00
2019-01-11T09:31:22.848Z,12.03
2019-01-11T09:33:52.130Z,12.50
2019-01-11T09:36:21.418Z,13.17
2019-01-11T09:38:50.675Z,15.13
2019-01-11T09:41:20.757Z,12.30
2019-01-11T09:43:50.183Z,13.73
2019-01-11T09:46:19.370Z,16.97
2019-01-11T09:48:48.661Z,14.87
2019-01-11T09:51:17.941Z,13.90
2019-01-11T09:53:47.124Z,10.50
2019-01-11T09:56:16.497Z,10.47
2019-01-11T09:58:46.004Z,10.40
2019-01-11T10:01:15.319Z,12.47
2019-01-11T10:03:44.477Z,9.70
2019-01-11T10:06:13.794Z,7.70
2019-01-11T10:08:43.008Z,8.77
2019-01-11T10:11:13.565Z,12.93
2019-01-11T10:13:42.894Z,9.33
2019-01-11T10:16:12.209Z,10.93
2019-01-11T10:18:41.779Z,12.73
2019-01-11T10:21:11.126Z,12.13
2019-01-11T10:23:40.388Z,11.03
2019-01-11T10:26:09.673Z,10.33
2019-01-11T10:28:38.893Z,9.17
2019-01-11T10:31:08.193Z,11.57
2019-01-11T10:33:37.432Z,10.27
2019-01-11T10:36:06.761Z,13.90
2019-01-11T10:38:36.046Z,10.43
2019-01-11T10:41:05.325Z,9.27
2019-01-11T10:43:34.499Z,11.13
2019-01-11T10:46:09.499Z,9.77
2019-01-11T10:48:38.782Z,10.20
2019-01-11T10:51:08.068Z,11.63
2019-01-11T10:53:37.324Z,11.70
2019-01-11T10:56:06.748Z,9.50
2019-01-11T10:58:36.167Z,8.80
2019-01-11T11:01:05.401Z,9.90
2019-01-11T11:03:34.557Z,9.57
2019-01-11T11:06:03.847Z,8.83
2019-01-11T11:08:33.043Z,11.07
2019-01-11T11:11:02.259Z,9.13
2019-01-11T11:13:31.462Z,9.10
2019-01-11T11:16:00.753Z,9.83
2019-01-11T11:18:29.972Z,11.13
2019-01-11T11:20:59.243Z,11.80
2019-01-11T11:23:28.385Z,11.80
2019-01-11T11:25:57.617Z,9.80
2019-01-11T11:28:26.937Z,10.60
2019-01-11T11:30:56.929Z,11.43
2019-01-11T11:33:26.183Z,13.77
2019-01-11T11:35:55.480Z,9.70
2019-01-11T11:38:24.700Z,12.07
2019-01-11T11:40:54.131Z,12.43
2019-01-11T11:43:23.400Z,11.40
2019-01-11T11:45:52.668Z,11.23
2019-01-11T11:48:21.950Z,8.43
2019-01-11T11:50:51.160Z,11.30
2019-01-11T11:53:20.375Z,14.80
2019-01-11T11:55:49.667Z,10.50
2019-01-11T11:58:18.911Z,10.73
2019-01-11T12:00:48.185Z,11.23
2019-01-11T12:03:17.485Z,9.67
2019-01-11T12:05:46.916Z,10.67
2019-01-11T12:08:16.186Z,9.47
2019-01-11T12:10:45.396Z,9.27
2019-01-11T12:13:14.689Z,11.40
2019-01-11T12:15:43.951Z,10.50
2019-01-11T12:18:13.229Z,10.87
2019-01-11T12:20:42.478Z,13.50
2019-01-11T12:23:11.670Z,14.47
2019-01-11T12:25:40.862Z,13.13
2019-01-11T12:28:10.143Z,11.33
2019-01-11T12:30:39.339Z,12.63
2019-01-11T12:33:08.571Z,13.90
2019-01-11T12:35:37.888Z,13.30
2019-01-11T12:38:13.532Z,10.87
2019-01-11T12:40:38.142Z,15.13
2019-01-11T12:43:07.437Z,11.87
2019-01-11T12:45:36.763Z,15.07
2019-01-11T12:48:06.036Z,11.17
2019-01-11T12:50:35.258Z,13.97
2019-01-11T12:53:04.576Z,12.00
2019-01-11T12:55:33.871Z,13.13
2019-01-11T12:58:03.193Z,13.60
2019-01-11T13:00:32.417Z,16.27
2019-01-11T13:03:01.580Z,10.70
2019-01-11T13:05:30.878Z,12.27
2019-01-11T13:08:00.219Z,12.53
2019-01-11T13:10:29.635Z,11.43
2019-01-11T13:12:58.852Z,14.77
2019-01-11T13:15:28.205Z,13.40
2019-01-11T13:17:57.480Z,13.90
2019-01-11T13:20:26.800Z,12.23
2019-01-11T13:22:56.087Z,14.37
2019-01-11T13:25:25.343Z,11.93
2019-01-11T13:27:54.524Z,14.37
2019-01-11T13:30:23.821Z,11.23
2019-01-11T13:32:53.091Z,14.87
2019-01-11T13:35:22.368Z,11.80
2019-01-11T13:37:51.573Z,13.60
2019-01-11T13:40:22.806Z,14.87
2019-01-11T13:42:52.215Z,15.37
2019-01-11T13:45:22.561Z,13.03
2019-01-11T13:47:52.029Z,12.60
2019-01-11T13:50:40.970Z,11.90
2019-01-11T13:53:14.833Z,14.30
2019-01-11T13:55:44.158Z,12.37
2019-01-11T13:58:13.476Z,13.07
2019-01-11T14:00:42.849Z,14.03
2019-01-11T14:03:12.074Z,11.37
2019-01-11T14:05:41.358Z,12.67
2019-01-11T14:08:10.698Z,12.93
2019-01-11T14:10:39.952Z,13.40
2019-01-11T14:13:09.289Z,12.80
2019-01-11T14:15:38.695Z,14.07
2019-01-11T14:18:08.068Z,14.50
2019-01-11T14:20:37.302Z,14.00
2019-01-11T14:23:07.776Z,12.67
2019-01-11T14:25:36.973Z,12.93
2019-01-11T14:28:06.773Z,13.50
2019-01-11T14:30:36.135Z,16.03
2019-01-11T14:33:05.884Z,13.63
2019-01-11T14:35:35.694Z,13.43
2019-01-11T14:38:04.990Z,13.37
2019-01-11T14:40:34.363Z,13.60
2019-01-11T14:43:03.585Z,11.00
2019-01-11T14:45:32.848Z,13.90
2019-01-11T14:48:02.080Z,14.40
2019-01-11T14:50:31.278Z,15.37
2019-01-11T14:53:00.594Z,10.80
2019-01-11T14:55:29.920Z,12.20
2019-01-11T14:57:59.348Z,11.67
2019-01-11T15:00:28.598Z,12.37
2019-01-11T15:02:57.922Z,13.10
2019-01-11T15:05:27.164Z,10.03
2019-01-11T15:07:56.368Z,12.57
2019-01-11T15:10:25.754Z,10.03
2019-01-11T15:12:55.037Z,12.03
2019-01-11T15:15:24.310Z,12.40
2019-01-11T15:17:53.557Z,11.97
2019-01-11T15:20:22.837Z,13.03
2019-01-11T15:22:52.052Z,11.23
2019-01-11T15:25:21.389Z,10.70
2019-01-11T15:27:50.677Z,11.57
2019-01-11T15:30:20.887Z,13.17
2019-01-11T15:32:50.398Z,12.93
2019-01-11T15:35:20.017Z,14.90
2019-01-11T15:37:49.324Z,14.67
2019-01-11T15:40:29.281Z,15.53
2019-01-11T15:42:58.455Z,25.17
2019-01-11T15:45:27.754Z,38.77
2019-01-11T15:47:56.967Z,29.53
2019-01-11T15:50:48.584Z,18.63
2019-01-11T15:53:17.789Z,23.73
2019-01-11T15:55:47.214Z,14.53
2019-01-11T15:58:16.476Z,16.33
2019-01-11T16:00:47.367Z,15.47
2019-01-11T16:03:16.745Z,14.30
2019-01-11T16:05:45.964Z,14.13
2019-01-11T16:08:15.270Z,12.70
2019-01-11T16:11:27.240Z,14.07
2019-01-11T16:14:33.255Z,13.40
2019-01-11T16:17:09.169Z,10.97
2019-01-11T16:19:38.490Z,9.30
2019-01-11T16:22:07.801Z,13.50
2019-01-11T16:24:37.001Z,14.87
2019-01-11T16:27:06.318Z,12.83
2019-01-11T16:29:35.542Z,10.13
2019-01-11T16:32:04.942Z,13.63
2019-01-11T16:34:34.300Z,14.17
2019-01-11T16:37:03.614Z,15.10
2019-01-11T16:39:33.082Z,14.13
2019-01-11T16:42:02.459Z,13.07
2019-01-11T16:44:31.822Z,12.67
2019-01-11T16:47:01.128Z,12.40
2019-01-11T16:49:30.442Z,11.37
2019-01-11T16:51:59.725Z,11.03
2019-01-11T16:54:28.979Z,13.83
2019-01-11T16:56:58.243Z,11.23
2019-01-11T16:59:27.514Z,12.63
2019-01-11T17:01:56.859Z,14.50
2019-01-11T17:04:26.349Z,12.60
2019-01-11T17:06:55.733Z,10.63
2019-01-11T17:09:25.016Z,13.63
2019-01-11T17:11:54.230Z,10.83
2019-01-11T17:14:23.506Z,10.67
2019-01-11T17:16:52.814Z,15.83
2019-01-11T17:19:22.173Z,14.93
2019-01-11T17:21:51.409Z,11.77
2019-01-11T17:24:20.635Z,12.47
2019-01-11T17:26:49.870Z,14.13
2019-01-11T17:29:19.421Z,17.53
2019-01-11T17:31:48.773Z,11.23
2019-01-11T17:34:18.183Z,11.33
2019-01-11T17:36:47.499Z,15.47
2019-01-11T17:39:16.825Z,16.13
2019-01-11T17:41:46.102Z,12.67
2019-01-11T17:44:15.417Z,15.00
2019-01-11T17:46:44.698Z,11.70
2019-01-11T17:49:13.939Z,12.70
2019-01-11T17:51:43.558Z,11.20
2019-01-11T17:54:13.001Z,9.30
2019-01-11T17:56:42.262Z,13.13
2019-01-11T17:59:11.594Z,9.67
2019-01-11T18:01:40.920Z,12.23
2019-01-11T18:04:10.303Z,12.43
2019-01-11T18:06:39.674Z,11.67
2019-01-11T18:09:09.173Z,9.63
2019-01-11T18:11:38.508Z,9.73
2019-01-11T18:14:07.784Z,14.70
2019-01-11T18:16:37.074Z,15.97
2019-01-11T18:19:06.352Z,11.73
2019-01-11T18:21:35.719Z,12.53
2019-01-11T18:24:05.317Z,14.47
2019-01-11T18:26:34.585Z,13.10
2019-01-11T18:29:03.918Z,11.63
2019-01-11T18:31:33.119Z,13.00
2019-01-11T18:34:02.400Z,13.10
2019-01-11T18:36:31.782Z,10.73
2019-01-11T18:39:01.091Z,12.80
2019-01-11T18:41:30.379Z,15.33
2019-01-11T18:43:59.669Z,11.80
2019-01-11T18:46:28.939Z,12.33
2019-01-11T18:48:58.553Z,12.07
2019-01-11T18:51:27.881Z,9.50
2019-01-11T18:53:57.136Z,11.67
2019-01-11T18:56:26.448Z,14.60
2019-01-11T18:58:55.689Z,10.03
2019-01-11T19:01:24.935Z,14.20
2019-01-11T19:03:54.180Z,12.17
2019-01-11T19:06:23.484Z,9.93
2019-01-11T19:08:52.801Z,11.27
2019-01-11T19:11:22.066Z,10.93
2019-01-11T19:13:51.343Z,10.27
2019-01-11T19:16:20.567Z,10.63
2019-01-11T19:18:49.876Z,12.37
2019-01-11T19:21:19.248Z,10.40
2019-01-11T19:23:48.600Z,8.97
2019-01-11T19:26:17.885Z,9.00
2019-01-11T19:28:47.182Z,13.63
2019-01-11T19:31:16.450Z,11.70
2019-01-11T19:33:45.772Z,10.90
2019-01-11T19:36:15.183Z,13.97
2019-01-11T19:38:44.397Z,14.43
2019-01-11T19:41:13.649Z,17.57
2019-01-11T19:43:43.035Z,15.87
2019-01-11T19:46:12.570Z,14.77
2019-01-11T19:48:41.810Z,15.50
2019-01-11T19:51:11.003Z,14.90
2019-01-11T19:53:40.390Z,17.03
2019-01-11T19:56:09.614Z,11.90
2019-01-11T19:58:38.882Z,14.93
2019-01-11T20:01:08.226Z,15.17
2019-01-11T20:03:37.628Z,16.07
2019-01-11T20:06:07.282Z,13.13
2019-01-11T20:08:36.644Z,12.97
2019-01-11T20:11:05.920Z,14.83
2019-01-11T20:13:35.213Z,18.23
2019-01-11T20:16:04.608Z,15.90
2019-01-11T20:18:33.989Z,14.50
2019-01-11T20:21:03.578Z,11.63
2019-01-11T20:23:36.568Z,19.50
2019-01-11T20:26:04.270Z,17.30
2019-01-11T20:28:33.662Z,20.43
2019-01-11T20:31:02.963Z,17.83
2019-01-11T20:33:32.277Z,19.63
2019-01-11T20:36:01.615Z,15.73
2019-01-11T20:38:30.998Z,17.50
2019-01-11T20:41:00.433Z,14.87
2019-01-11T20:43:29.707Z,12.57
2019-01-11T20:46:03.067Z,17.37
2019-01-11T20:48:30.028Z,17.70
2019-01-11T20:50:59.360Z,18.17
2019-01-11T20:53:28.641Z,22.13
2019-01-11T20:55:57.950Z,19.63
2019-01-11T20:58:27.281Z,19.47
2019-01-11T21:00:56.941Z,13.97
2019-01-11T21:03:26.318Z,17.27
2019-01-11T21:05:55.610Z,14.30
2019-01-11T21:08:24.957Z,16.87
2019-01-11T21:10:54.284Z,17.97
2019-01-11T21:13:23.578Z,17.40
2019-01-11T21:15:52.934Z,15.80
2019-01-11T21:18:22.267Z,17.30
2019-01-11T21:20:51.658Z,18.17
2019-01-11T21:23:21.005Z,15.50
2019-01-11T21:25:50.280Z,18.50
2019-01-11T21:28:19.651Z,14.17
2019-01-11T21:30:48.984Z,13.23
2019-01-11T21:33:18.734Z,18.63
2019-01-11T21:35:48.135Z,15.20
2019-01-11T21:38:17.517Z,16.33
2019-01-11T21:40:46.808Z,20.23
2019-01-11T21:43:16.110Z,14.80
2019-01-11T21:45:45.427Z,12.53
2019-01-11T21:48:14.744Z,17.37
2019-01-11T21:50:44.069Z,17.27
2019-01-11T21:53:13.695Z,15.33
2019-01-11T21:55:43.031Z,11.43
2019-01-11T21:58:12.344Z,20.37
2019-01-11T22:00:46.427Z,24.90
2019-01-11T22:03:20.260Z,21.37
2019-01-11T22:05:49.709Z,19.97
2019-01-11T22:08:19.041Z,19.90
2019-01-11T22:10:48.295Z,22.03
2019-01-11T22:13:17.588Z,16.17
2019-01-11T22:15:46.957Z,18.47
2019-01-11T22:18:16.609Z,19.90
2019-01-11T22:20:46.012Z,19.83
2019-01-11T22:23:15.219Z,14.53
2019-01-11T22:25:44.712Z,15.40
2019-01-11T22:28:14.045Z,22.23
2019-01-11T22:30:43.486Z,19.60
2019-01-11T22:33:12.956Z,19.10
2019-01-11T22:35:42.316Z,23.40
2019-01-11T22:38:11.664Z,14.97
2019-01-11T22:40:40.973Z,19.60
2019-01-11T22:43:10.355Z,23.17
2019-01-11T22:45:39.661Z,14.90
2019-01-11T22:48:09.157Z,13.10
2019-01-11T22:50:38.456Z,15.93
2019-01-11T22:53:07.760Z,13.00
2019-01-11T22:55:37.079Z,15.07
2019-01-11T22:58:06.362Z,15.33
2019-01-11T23:01:32.902Z,19.30
2019-01-11T23:04:02.173Z,19.17
2019-01-11T23:06:54.037Z,19.40
2019-01-11T23:09:25.838Z,18.03
2019-01-11T23:12:15.627Z,19.93
2019-01-11T23:14:44.971Z,17.20
2019-01-11T23:17:26.217Z,13.70
2019-01-11T23:19:55.566Z,15.27
2019-01-11T23:22:25.017Z,18.20
2019-01-11T23:24:54.318Z,18.87
2019-01-11T23:27:23.640Z,20.03
2019-01-11T23:29:53.016Z,18.83
2019-01-11T23:32:22.364Z,18.90
2019-01-11T23:34:51.700Z,15.77
2019-01-11T23:37:21.014Z,19.87
2019-01-11T23:39:50.377Z,18.73
2019-01-11T23:42:19.797Z,19.43
2019-01-11T23:44:49.148Z,20.47
2019-01-11T23:47:18.425Z,15.00
2019-01-11T23:49:47.713Z,18.33
2019-01-11T23:52:16.942Z,21.60
2019-01-11T23:54:46.231Z,15.83
2019-01-11T23:57:15.514Z,17.63
2019-01-11T23:59:44.893Z,18.77
